Time;durP1;ratioP1;P1;durP2;ratioP2;P2;SDS_P1;SDS_P2;PMS_P1;PMS_P2;Temp;Humidity;BMP_temperature;BMP_pressure;BME280_temperature;BME280_humidity;BME280_pressure;Samples;Min_cycle;Max_cycle;Signal;HPM_P1;HPM_P2
2022/07/24 00:14:37;;;;;;;6.50;4.40;;;;;;;19.58;100.00;100499.36;657006;1277;139541;-89
2022/07/24 00:29:40;;;;;;;10.60;3.50;;;;;;;19.09;100.00;100506.00;657406;1277;138808;-90
2022/07/24 00:44:44;;;;;;;6.30;2.80;;;;;;;18.78;100.00;100510.38;657312;1277;139549;-86
2022/07/24 00:59:47;;;;;;;10.00;3.20;;;;;;;18.65;100.00;100517.34;657095;1277;139284;-87
2022/07/24 01:14:50;;;;;;;7.50;3.20;;;;;;;18.25;100.00;100507.71;657067;1277;139915;-87
2022/07/24 01:29:53;;;;;;;6.60;3.80;;;;;;;17.99;100.00;100503.83;657194;1277;139677;-88
2022/07/24 01:44:56;;;;;;;8.90;4.10;;;;;;;17.65;100.00;100509.98;656971;1278;139341;-87
2022/07/24 02:00:02;;;;;;;9.10;3.50;;;;;;;17.13;100.00;100501.05;657015;1277;139297;-87
2022/07/24 02:15:15;;;;;;;5.60;3.30;;;;;;;16.71;100.00;100493.49;657029;1277;139015;-87
2022/07/24 02:30:21;;;;;;;6.10;2.60;;;;;;;16.49;100.00;100491.34;655806;1277;139135;-86
2022/07/24 02:45:24;;;;;;;7.60;2.70;;;;;;;16.43;100.00;100486.88;657768;1277;139131;-87
2022/07/24 03:00:28;;;;;;;8.10;2.70;;;;;;;16.36;100.00;100483.20;656829;1278;139295;-87
2022/07/24 03:15:31;;;;;;;6.90;2.60;;;;;;;16.25;100.00;100498.16;657280;1277;139069;-87
2022/07/24 03:30:36;;;;;;;5.00;2.90;;;;;;;16.12;100.00;100500.25;656421;1278;139300;-87
2022/07/24 03:45:39;;;;;;;9.00;3.60;;;;;;;16.22;100.00;100497.91;655135;1277;140132;-88
2022/07/24 04:00:42;;;;;;;6.40;3.00;;;;;;;16.44;100.00;100500.84;655219;1277;139357;-89
2022/07/24 04:15:46;;;;;;;5.20;3.30;;;;;;;16.61;100.00;100496.86;655165;1276;139260;-87
2022/07/24 04:30:49;;;;;;;6.60;4.00;;;;;;;16.77;100.00;100501.98;654892;1279;139512;-88
2022/07/24 04:45:52;;;;;;;8.90;4.10;;;;;;;16.98;100.00;100504.45;654823;1277;440096;-88
2022/07/24 05:00:56;;;;;;;6.00;3.90;;;;;;;17.24;100.00;100501.59;655409;1278;139086;-89
2022/07/24 05:15:59;;;;;;;15.30;4.80;;;;;;;17.64;100.00;100512.83;656275;1279;139069;-89
2022/07/24 05:31:03;;;;;;;8.20;4.40;;;;;;;17.67;100.00;100529.09;655259;1277;139674;-90
2022/07/24 05:46:07;;;;;;;7.90;4.00;;;;;;;18.50;100.00;100541.44;659537;1277;139450;-88
2022/07/24 06:01:15;;;;;;;5.30;3.80;;;;;;;19.24;100.00;100553.94;657634;1278;139678;-89
2022/07/24 06:16:19;;;;;;;6.90;3.70;;;;;;;19.73;100.00;100556.71;657027;1277;140198;-89
2022/07/24 06:31:22;;;;;;;4.60;3.60;;;;;;;19.73;100.00;100559.44;655768;1277;140243;-89
2022/07/24 06:46:26;;;;;;;8.00;4.10;;;;;;;19.01;100.00;100575.64;655351;1279;140391;-88
2022/07/24 07:01:30;;;;;;;7.30;4.00;;;;;;;18.85;100.00;100582.71;656735;1277;139718;-92
2022/07/24 07:16:34;;;;;;;5.30;3.60;;;;;;;19.23;100.00;100589.73;660164;1278;139057;-90
2022/07/24 07:31:37;;;;;;;8.10;3.60;;;;;;;19.71;100.00;100603.98;659184;1277;140406;-88
2022/07/24 07:46:41;;;;;;;6.30;4.10;;;;;;;20.00;100.00;100611.48;659458;1278;139165;-88
2022/07/24 08:01:45;;;;;;;6.40;3.70;;;;;;;19.94;100.00;100625.54;658522;1278;139540;-91
2022/07/24 08:16:48;;;;;;;6.90;3.40;;;;;;;19.99;100.00;100626.48;661781;1277;139178;-91
2022/07/24 08:31:52;;;;;;;5.00;3.00;;;;;;;20.90;100.00;100614.48;661363;1277;139604;-90
2022/07/24 08:46:58;;;;;;;4.80;2.70;;;;;;;22.11;99.74;100613.21;660851;1277;139756;-89
2022/07/24 09:02:02;;;;;;;2.50;2.30;;;;;;;21.71;99.36;100620.88;661238;1277;139563;-91
2022/07/24 09:17:17;;;;;;;4.70;2.80;;;;;;;23.09;93.63;100622.80;658633;1278;140097;-90
2022/07/24 09:32:23;;;;;;;3.50;2.40;;;;;;;22.60;90.73;100635.77;656479;1277;25417;-89
2022/07/24 09:47:33;;;;;;;4.10;2.60;;;;;;;23.17;89.41;100644.70;659128;1277;22514;-88
2022/07/24 10:19:01;;;;;;;2.10;1.90;;;;;;;23.58;87.27;100652.56;638245;1305;5042176;-90
2022/07/24 10:34:53;;;;;;;3.70;2.00;;;;;;;23.81;85.00;100650.80;653301;1284;140335;-89
2022/07/24 10:49:58;;;;;;;4.90;2.20;;;;;;;24.13;80.01;100667.23;650851;1288;139309;-91
2022/07/24 11:05:31;;;;;;;4.00;2.00;;;;;;;23.97;79.49;100676.95;654628;1287;138179;-90
2022/07/24 11:20:35;;;;;;;2.50;1.90;;;;;;;24.05;76.48;100670.70;651571;1289;137753;-89
2022/07/24 11:35:39;;;;;;;11.70;7.80;;;;;;;24.50;74.96;100682.56;654418;1282;137972;-89
2022/07/24 11:50:43;;;;;;;6.40;5.10;;;;;;;24.63;70.22;100687.42;653533;1282;138048;-90
2022/07/24 12:05:46;;;;;;;3.30;2.70;;;;;;;25.09;68.05;100693.00;656201;1282;138443;-89
2022/07/24 12:20:50;;;;;;;3.00;2.60;;;;;;;24.53;69.17;100694.59;661061;1282;137555;-90
2022/07/24 12:35:56;;;;;;;7.10;4.10;;;;;;;24.72;70.44;100706.22;654753;1281;137892;-91
2022/07/24 12:51:06;;;;;;;2.30;2.10;;;;;;;24.74;71.12;100701.66;654447;1282;137815;-90
2022/07/24 13:06:11;;;;;;;6.20;3.00;;;;;;;25.17;70.90;100697.80;654627;1282;138053;-89
2022/07/24 13:21:15;;;;;;;10.00;6.50;;;;;;;25.60;68.51;100689.02;655221;1282;138138;-90
2022/07/24 13:36:19;;;;;;;2.80;2.00;;;;;;;25.79;67.96;100692.13;655256;1283;138588;-88
2022/07/24 13:51:27;;;;;;;2.70;2.20;;;;;;;25.73;68.54;100690.59;658064;1277;138353;-93
2022/07/24 14:06:32;;;;;;;2.80;2.20;;;;;;;25.88;68.21;100687.59;657209;1277;137993;-91
2022/07/24 14:21:56;;;;;;;2.80;2.40;;;;;;;25.42;68.85;100691.17;658090;1277;138238;-91
2022/07/24 14:37:03;;;;;;;3.90;2.70;;;;;;;25.94;68.14;100682.17;659696;1277;138377;-92
2022/07/24 14:52:07;;;;;;;2.90;2.00;;;;;;;26.03;67.72;100680.95;659779;1277;138232;-92
2022/07/24 15:07:11;;;;;;;3.20;2.60;;;;;;;24.93;70.00;100678.50;660049;1277;138489;-90
2022/07/24 15:22:14;;;;;;;2.80;2.40;;;;;;;24.93;72.05;100678.23;663036;1276;138002;-94
2022/07/24 15:37:18;;;;;;;3.30;2.60;;;;;;;25.09;72.60;100676.21;656456;1279;138255;-91
2022/07/24 15:52:25;;;;;;;3.20;2.80;;;;;;;24.79;72.65;100672.80;657746;1276;138071;-91
2022/07/24 16:07:29;;;;;;;4.30;2.80;;;;;;;24.50;74.19;100675.09;658099;1277;137980;-90
2022/07/24 16:22:34;;;;;;;5.80;3.10;;;;;;;24.59;75.02;100668.30;657783;1277;138387;-89
2022/07/24 16:37:37;;;;;;;3.70;3.20;;;;;;;24.82;73.96;100662.35;660251;1277;138059;-90
2022/07/24 16:52:40;;;;;;;3.40;2.70;;;;;;;24.34;74.39;100661.52;657988;1276;138300;-89
2022/07/24 17:07:56;;;;;;;4.60;2.70;;;;;;;24.42;74.02;100647.23;658431;1277;138136;-92
2022/07/24 17:23:03;;;;;;;3.80;3.00;;;;;;;24.35;75.18;100637.26;658340;1277;138813;-90
2022/07/24 17:38:06;;;;;;;4.00;2.80;;;;;;;24.73;75.88;100625.41;656309;1277;138011;-91
2022/07/24 17:53:17;;;;;;;3.80;3.10;;;;;;;24.22;76.70;100629.17;658426;1277;138206;-89
2022/07/24 18:08:21;;;;;;;3.90;3.10;;;;;;;23.51;78.98;100633.56;658492;1277;138126;-91
2022/07/24 18:23:25;;;;;;;5.90;3.70;;;;;;;23.02;80.92;100639.13;657410;1277;138442;-91
2022/07/24 18:38:29;;;;;;;5.70;3.60;;;;;;;22.74;82.43;100645.66;657766;1277;138851;-92
2022/07/24 18:53:34;;;;;;;28.40;19.90;;;;;;;22.43;84.50;100658.02;658577;1277;138575;-92
2022/07/24 19:08:38;;;;;;;63.60;53.40;;;;;;;21.85;85.68;100659.43;657848;1277;139100;-89
2022/07/24 19:23:42;;;;;;;24.70;17.30;;;;;;;21.44;88.00;100664.82;660882;1277;139187;-89
2022/07/24 19:38:51;;;;;;;88.70;48.60;;;;;;;20.90;90.25;100668.09;661010;1276;139264;-90
2022/07/24 19:53:55;;;;;;;;;;;;;;;20.27;93.06;100662.04;660019;1277;139065;-89
2022/07/24 20:09:00;;;;;;;88.10;44.20;;;;;;;20.24;95.75;100675.54;659467;1277;125517;-90
2022/07/24 20:24:05;;;;;;;11.40;7.40;;;;;;;20.03;96.21;100681.63;659310;1277;140337;-89
2022/07/24 20:39:11;;;;;;;7.60;5.80;;;;;;;19.60;98.47;100668.64;659231;1277;138992;-89
2022/07/24 20:54:15;;;;;;;16.20;8.60;;;;;;;19.36;99.76;100680.89;658471;1277;138849;-89
2022/07/24 21:09:23;;;;;;;9.20;6.40;;;;;;;19.21;100.00;100693.89;657604;1278;138948;-89
2022/07/24 21:24:27;;;;;;;10.10;6.30;;;;;;;18.80;100.00;100701.70;659259;1277;139065;-89
2022/07/24 21:39:30;;;;;;;8.50;6.70;;;;;;;18.48;100.00;100707.94;656756;1277;139975;-90
2022/07/24 21:54:33;;;;;;;8.90;6.20;;;;;;;18.34;100.00;100703.55;658058;1277;140003;-89
2022/07/24 22:09:36;;;;;;;9.00;6.60;;;;;;;18.15;100.00;100700.67;656923;1279;138911;-89
2022/07/24 22:24:40;;;;;;;8.80;6.00;;;;;;;17.85;100.00;100688.95;656853;1277;450391;-89
2022/07/24 22:39:43;;;;;;;12.30;7.00;;;;;;;18.01;100.00;100680.42;657879;1277;138911;-89
2022/07/24 22:54:47;;;;;;;12.40;7.70;;;;;;;18.10;100.00;100691.80;657638;1278;139637;-88
2022/07/24 23:09:50;;;;;;;9.80;6.40;;;;;;;17.78;100.00;100678.33;657981;1277;139067;-88
2022/07/24 23:24:53;;;;;;;10.70;7.10;;;;;;;17.29;100.00;100664.60;658086;1277;139363;-88
2022/07/24 23:39:57;;;;;;;13.90;7.90;;;;;;;17.08;100.00;100656.95;658731;1277;138973;-87
2022/07/24 23:55:00;;;;;;;11.70;7.80;;;;;;;16.90;100.00;100654.20;657990;1277;139056;-87
